Wrigley, Canada
Current Conditions -  °F | °C
As of 9:00 AM on Wednesday 26 Nov 2014 (Local Time) from CYFS Reporting Station
Light Snow Light Snow  
Wind Chill: -19°   Ceiling: 3500
Heat Index:   Visibility: 10mi
Dew Point: -6°   Wind: 14mph
Humidity: 78%   Direction: 330°NNW
Pressure: 30.41"   Gusts: NA
Location:  63.27°N, 123.6°W
Report Text: CYFS 261600Z 33012KT 10SM -SN OVC035 M18/M21 A3041 RMK SC8 SLP324
Loading
Personal Weather Stations






























Interactive Weather Map New forecast layout! Learn more

10-Day Weather Forecast

Advertisements
Track Severe Weather on mobile